Terminal Aerodrome Forecast
Issued by NWS Burlington, VT

Home | Current Version | Previous Version | Text Only | Print | Product List | Glossary On
Versions: 1 2 3 4 5 6 7 8 9 10 11 12 13 14 15 16 17 18 19 20
000
FTUS41 KBTV 280500 RRA
TAFBTV
TAF
KBTV 280541Z 2806/2906 00000KT 6SM BR VCFG FEW002
     FM281000 00000KT 6SM RA BR OVC025
     FM281200 01004KT 3SM RA BR VCTS OVC030CB
     FM281700 36008KT 3SM -RA BR OVC020
     FM290000 33007KT 3SM -SHRA BR OVC020=

USA.gov is the U.S. government's official web portal to all federal, state and local government web resources and services.